sensor_id;sensor_type;location;lat;lon;timestamp;P1;durP1;ratioP1;P2;durP2;ratioP2
75289;SDS011;63883;48.996;20.804;2022-12-18T15:16:06;30.30;;;12.50;;
75289;SDS011;63883;48.996;20.804;2022-12-18T15:18:40;46.50;;;18.60;;
75289;SDS011;63883;48.996;20.804;2022-12-18T15:21:08;50.30;;;18.38;;
75289;SDS011;63883;48.996;20.804;2022-12-18T15:23:38;46.47;;;18.60;;
75289;SDS011;63883;48.996;20.804;2022-12-18T15:26:12;50.10;;;19.13;;
75289;SDS011;63883;48.996;20.804;2022-12-18T15:33:45;56.45;;;19.20;;
75289;SDS011;63883;48.996;20.804;2022-12-18T15:36:28;57.30;;;22.15;;
75289;SDS011;63883;48.996;20.804;2022-12-18T15:38:55;59.67;;;22.80;;
75289;SDS011;63883;48.996;20.804;2022-12-18T15:41:25;67.10;;;23.20;;
75289;SDS011;63883;48.996;20.804;2022-12-18T15:43:51;64.25;;;22.55;;
75289;SDS011;63883;48.996;20.804;2022-12-18T15:48:46;73.55;;;25.67;;
75289;SDS011;63883;48.996;20.804;2022-12-18T15:53:47;75.97;;;25.83;;
75289;SDS011;63883;48.996;20.804;2022-12-18T15:56:15;50.28;;;19.77;;
75289;SDS011;63883;48.996;20.804;2022-12-18T15:59:00;65.75;;;22.50;;
75289;SDS011;63883;48.996;20.804;2022-12-18T16:01:27;66.00;;;23.77;;
75289;SDS011;63883;48.996;20.804;2022-12-18T16:03:55;64.13;;;24.10;;
75289;SDS011;63883;48.996;20.804;2022-12-18T16:06:21;66.13;;;23.45;;
75289;SDS011;63883;48.996;20.804;2022-12-18T16:08:48;72.50;;;25.13;;
75289;SDS011;63883;48.996;20.804;2022-12-18T16:14:25;91.60;;;31.42;;
75289;SDS011;63883;48.996;20.804;2022-12-18T16:16:59;75.32;;;25.50;;
75289;SDS011;63883;48.996;20.804;2022-12-18T16:19:27;67.22;;;21.15;;
75289;SDS011;63883;48.996;20.804;2022-12-18T16:21:54;102.70;;;33.15;;
75289;SDS011;63883;48.996;20.804;2022-12-18T16:24:22;94.40;;;30.35;;
75289;SDS011;63883;48.996;20.804;2022-12-18T16:26:52;93.35;;;28.63;;
75289;SDS011;63883;48.996;20.804;2022-12-18T16:29:19;84.82;;;29.23;;
75289;SDS011;63883;48.996;20.804;2022-12-18T16:31:52;60.53;;;23.35;;
75289;SDS011;63883;48.996;20.804;2022-12-18T16:36:49;79.97;;;28.40;;
75289;SDS011;63883;48.996;20.804;2022-12-18T16:39:15;89.32;;;30.75;;
75289;SDS011;63883;48.996;20.804;2022-12-18T16:41:41;86.72;;;30.42;;
75289;SDS011;63883;48.996;20.804;2022-12-18T16:44:07;75.25;;;29.15;;
75289;SDS011;63883;48.996;20.804;2022-12-18T16:46:33;88.47;;;31.45;;
75289;SDS011;63883;48.996;20.804;2022-12-18T16:48:59;92.78;;;33.15;;
75289;SDS011;63883;48.996;20.804;2022-12-18T16:51:26;92.95;;;33.63;;
75289;SDS011;63883;48.996;20.804;2022-12-18T16:53:53;82.70;;;29.90;;
75289;SDS011;63883;48.996;20.804;2022-12-18T16:56:19;88.00;;;29.10;;
75289;SDS011;63883;48.996;20.804;2022-12-18T16:58:49;88.28;;;31.38;;
75289;SDS011;63883;48.996;20.804;2022-12-18T17:01:16;83.18;;;31.60;;
75289;SDS011;63883;48.996;20.804;2022-12-18T17:03:42;80.15;;;29.67;;
75289;SDS011;63883;48.996;20.804;2022-12-18T17:06:07;83.47;;;28.55;;
75289;SDS011;63883;48.996;20.804;2022-12-18T17:08:33;93.00;;;31.65;;
75289;SDS011;63883;48.996;20.804;2022-12-18T17:11:03;90.85;;;32.67;;
75289;SDS011;63883;48.996;20.804;2022-12-18T17:13:31;91.82;;;32.47;;
75289;SDS011;63883;48.996;20.804;2022-12-18T17:16:00;91.75;;;30.38;;
75289;SDS011;63883;48.996;20.804;2022-12-18T17:18:31;62.67;;;24.90;;
75289;SDS011;63883;48.996;20.804;2022-12-18T17:20:58;54.15;;;21.55;;
75289;SDS011;63883;48.996;20.804;2022-12-18T17:23:25;50.90;;;19.15;;
75289;SDS011;63883;48.996;20.804;2022-12-18T17:25:55;71.80;;;24.27;;
75289;SDS011;63883;48.996;20.804;2022-12-18T17:28:23;49.13;;;21.05;;
75289;SDS011;63883;48.996;20.804;2022-12-18T17:30:50;45.58;;;18.15;;
75289;SDS011;63883;48.996;20.804;2022-12-18T17:33:20;40.85;;;17.45;;
75289;SDS011;63883;48.996;20.804;2022-12-18T17:35:46;60.20;;;19.90;;
75289;SDS011;63883;48.996;20.804;2022-12-18T17:38:12;64.00;;;21.63;;
75289;SDS011;63883;48.996;20.804;2022-12-18T17:40:37;62.35;;;22.13;;
75289;SDS011;63883;48.996;20.804;2022-12-18T17:43:05;57.25;;;21.92;;
75289;SDS011;63883;48.996;20.804;2022-12-18T17:45:38;56.60;;;22.13;;
75289;SDS011;63883;48.996;20.804;2022-12-18T17:48:05;70.88;;;23.83;;
75289;SDS011;63883;48.996;20.804;2022-12-18T17:50:32;68.35;;;23.83;;
75289;SDS011;63883;48.996;20.804;2022-12-18T17:52:59;80.45;;;27.27;;
75289;SDS011;63883;48.996;20.804;2022-12-18T17:55:26;95.50;;;29.30;;
75289;SDS011;63883;48.996;20.804;2022-12-18T17:57:52;75.47;;;27.92;;
75289;SDS011;63883;48.996;20.804;2022-12-18T18:00:19;85.47;;;29.88;;
75289;SDS011;63883;48.996;20.804;2022-12-18T18:02:45;95.78;;;31.35;;
75289;SDS011;63883;48.996;20.804;2022-12-18T18:05:11;206.75;;;55.03;;
75289;SDS011;63883;48.996;20.804;2022-12-18T18:07:38;76.68;;;26.35;;
75289;SDS011;63883;48.996;20.804;2022-12-18T18:10:04;76.82;;;26.23;;
75289;SDS011;63883;48.996;20.804;2022-12-18T18:12:31;91.05;;;31.38;;
75289;SDS011;63883;48.996;20.804;2022-12-18T18:15:16;58.97;;;23.45;;
75289;SDS011;63883;48.996;20.804;2022-12-18T18:17:42;58.60;;;22.35;;
75289;SDS011;63883;48.996;20.804;2022-12-18T18:20:08;60.45;;;23.13;;
75289;SDS011;63883;48.996;20.804;2022-12-18T18:22:35;63.60;;;22.55;;
75289;SDS011;63883;48.996;20.804;2022-12-18T18:25:00;49.75;;;20.38;;
75289;SDS011;63883;48.996;20.804;2022-12-18T18:27:29;56.30;;;21.38;;
75289;SDS011;63883;48.996;20.804;2022-12-18T18:29:55;63.22;;;22.55;;
75289;SDS011;63883;48.996;20.804;2022-12-18T18:32:21;72.53;;;24.30;;
75289;SDS011;63883;48.996;20.804;2022-12-18T18:34:47;50.67;;;20.20;;
75289;SDS011;63883;48.996;20.804;2022-12-18T18:37:12;56.88;;;18.77;;
75289;SDS011;63883;48.996;20.804;2022-12-18T18:39:38;55.00;;;19.08;;
75289;SDS011;63883;48.996;20.804;2022-12-18T18:42:04;69.53;;;21.92;;
75289;SDS011;63883;48.996;20.804;2022-12-18T18:44:29;55.22;;;20.95;;
75289;SDS011;63883;48.996;20.804;2022-12-18T18:46:56;142.13;;;41.25;;
75289;SDS011;63883;48.996;20.804;2022-12-18T18:49:23;95.38;;;33.50;;
75289;SDS011;63883;48.996;20.804;2022-12-18T18:51:52;93.68;;;27.92;;
75289;SDS011;63883;48.996;20.804;2022-12-18T18:54:21;88.70;;;28.05;;
75289;SDS011;63883;48.996;20.804;2022-12-18T18:56:47;95.45;;;31.02;;
75289;SDS011;63883;48.996;20.804;2022-12-18T18:59:14;84.60;;;31.05;;
75289;SDS011;63883;48.996;20.804;2022-12-18T19:01:40;83.75;;;32.05;;
75289;SDS011;63883;48.996;20.804;2022-12-18T19:04:06;76.10;;;29.63;;
75289;SDS011;63883;48.996;20.804;2022-12-18T19:06:31;76.28;;;28.65;;
75289;SDS011;63883;48.996;20.804;2022-12-18T19:08:57;71.03;;;25.80;;
75289;SDS011;63883;48.996;20.804;2022-12-18T19:11:26;70.90;;;26.27;;
75289;SDS011;63883;48.996;20.804;2022-12-18T19:14:11;70.45;;;28.23;;
75289;SDS011;63883;48.996;20.804;2022-12-18T19:16:38;69.50;;;27.33;;
75289;SDS011;63883;48.996;20.804;2022-12-18T19:19:03;66.38;;;25.50;;
75289;SDS011;63883;48.996;20.804;2022-12-18T19:21:30;52.30;;;22.20;;
75289;SDS011;63883;48.996;20.804;2022-12-18T19:23:57;51.35;;;21.42;;
75289;SDS011;63883;48.996;20.804;2022-12-18T19:26:23;81.10;;;30.40;;
75289;SDS011;63883;48.996;20.804;2022-12-18T19:28:49;81.57;;;26.98;;
75289;SDS011;63883;48.996;20.804;2022-12-18T19:31:15;50.83;;;18.33;;
75289;SDS011;63883;48.996;20.804;2022-12-18T19:33:42;41.22;;;16.20;;
75289;SDS011;63883;48.996;20.804;2022-12-18T19:38:39;29.65;;;15.98;;
75289;SDS011;63883;48.996;20.804;2022-12-18T19:41:06;60.55;;;23.67;;
75289;SDS011;63883;48.996;20.804;2022-12-18T19:43:32;67.60;;;25.20;;
75289;SDS011;63883;48.996;20.804;2022-12-18T19:46:01;73.40;;;26.60;;
75289;SDS011;63883;48.996;20.804;2022-12-18T19:48:29;82.28;;;31.23;;
75289;SDS011;63883;48.996;20.804;2022-12-18T19:50:55;86.32;;;29.88;;
75289;SDS011;63883;48.996;20.804;2022-12-18T19:53:20;79.40;;;28.75;;
75289;SDS011;63883;48.996;20.804;2022-12-18T19:55:46;79.47;;;27.98;;
75289;SDS011;63883;48.996;20.804;2022-12-18T19:58:12;87.18;;;29.58;;
75289;SDS011;63883;48.996;20.804;2022-12-18T20:00:38;75.22;;;25.75;;
75289;SDS011;63883;48.996;20.804;2022-12-18T20:03:03;51.33;;;17.80;;
75289;SDS011;63883;48.996;20.804;2022-12-18T20:05:29;68.93;;;25.48;;
75289;SDS011;63883;48.996;20.804;2022-12-18T20:07:55;69.40;;;25.30;;
75289;SDS011;63883;48.996;20.804;2022-12-18T20:10:21;74.40;;;28.75;;
75289;SDS011;63883;48.996;20.804;2022-12-18T20:12:47;71.15;;;26.02;;
75289;SDS011;63883;48.996;20.804;2022-12-18T20:15:13;74.40;;;27.23;;
75289;SDS011;63883;48.996;20.804;2022-12-18T20:17:38;65.88;;;24.23;;
75289;SDS011;63883;48.996;20.804;2022-12-18T20:20:04;64.03;;;20.52;;
75289;SDS011;63883;48.996;20.804;2022-12-18T20:22:30;79.18;;;26.73;;
75289;SDS011;63883;48.996;20.804;2022-12-18T20:24:56;70.90;;;26.92;;
75289;SDS011;63883;48.996;20.804;2022-12-18T20:27:22;62.85;;;24.33;;
75289;SDS011;63883;48.996;20.804;2022-12-18T20:29:48;57.97;;;20.92;;
75289;SDS011;63883;48.996;20.804;2022-12-18T20:32:14;59.15;;;21.15;;
75289;SDS011;63883;48.996;20.804;2022-12-18T20:34:40;75.43;;;27.35;;
75289;SDS011;63883;48.996;20.804;2022-12-18T20:37:05;72.75;;;26.35;;
75289;SDS011;63883;48.996;20.804;2022-12-18T20:39:32;42.35;;;18.85;;
75289;SDS011;63883;48.996;20.804;2022-12-18T20:41:57;93.65;;;32.80;;
75289;SDS011;63883;48.996;20.804;2022-12-18T20:44:23;93.50;;;34.88;;
75289;SDS011;63883;48.996;20.804;2022-12-18T20:46:53;98.30;;;33.08;;
75289;SDS011;63883;48.996;20.804;2022-12-18T20:49:22;75.75;;;27.10;;
75289;SDS011;63883;48.996;20.804;2022-12-18T20:51:49;64.07;;;23.10;;
75289;SDS011;63883;48.996;20.804;2022-12-18T20:54:16;50.63;;;17.58;;
75289;SDS011;63883;48.996;20.804;2022-12-18T20:56:42;80.93;;;30.88;;
75289;SDS011;63883;48.996;20.804;2022-12-18T20:59:08;65.80;;;25.83;;
75289;SDS011;63883;48.996;20.804;2022-12-18T21:01:33;50.88;;;18.70;;
75289;SDS011;63883;48.996;20.804;2022-12-18T21:03:59;76.15;;;25.88;;
75289;SDS011;63883;48.996;20.804;2022-12-18T21:06:25;62.03;;;25.48;;
75289;SDS011;63883;48.996;20.804;2022-12-18T21:08:50;59.60;;;24.00;;
75289;SDS011;63883;48.996;20.804;2022-12-18T21:11:24;44.72;;;18.25;;
75289;SDS011;63883;48.996;20.804;2022-12-18T21:14:16;48.22;;;18.80;;
75289;SDS011;63883;48.996;20.804;2022-12-18T21:16:47;65.63;;;24.02;;
75289;SDS011;63883;48.996;20.804;2022-12-18T21:19:14;68.55;;;23.30;;
75289;SDS011;63883;48.996;20.804;2022-12-18T21:21:41;72.57;;;26.90;;
75289;SDS011;63883;48.996;20.804;2022-12-18T21:24:08;48.10;;;18.70;;
75289;SDS011;63883;48.996;20.804;2022-12-18T21:26:34;44.38;;;19.63;;
75289;SDS011;63883;48.996;20.804;2022-12-18T21:29:01;49.83;;;19.52;;
75289;SDS011;63883;48.996;20.804;2022-12-18T21:31:31;44.63;;;16.20;;
75289;SDS011;63883;48.996;20.804;2022-12-18T21:34:00;62.25;;;23.08;;
75289;SDS011;63883;48.996;20.804;2022-12-18T21:36:26;60.63;;;23.20;;
75289;SDS011;63883;48.996;20.804;2022-12-18T21:38:53;56.05;;;18.58;;
75289;SDS011;63883;48.996;20.804;2022-12-18T21:41:19;30.63;;;13.60;;
75289;SDS011;63883;48.996;20.804;2022-12-18T21:44:04;44.80;;;17.02;;
75289;SDS011;63883;48.996;20.804;2022-12-18T21:46:29;47.90;;;18.02;;
75289;SDS011;63883;48.996;20.804;2022-12-18T21:48:55;43.72;;;18.17;;
75289;SDS011;63883;48.996;20.804;2022-12-18T21:51:21;41.85;;;17.98;;
75289;SDS011;63883;48.996;20.804;2022-12-18T21:53:47;39.05;;;17.73;;
75289;SDS011;63883;48.996;20.804;2022-12-18T21:56:12;54.13;;;18.45;;
75289;SDS011;63883;48.996;20.804;2022-12-18T21:58:38;40.92;;;17.08;;
75289;SDS011;63883;48.996;20.804;2022-12-18T22:01:04;39.45;;;17.58;;
75289;SDS011;63883;48.996;20.804;2022-12-18T22:03:30;37.92;;;16.20;;
75289;SDS011;63883;48.996;20.804;2022-12-18T22:05:58;45.58;;;17.25;;
75289;SDS011;63883;48.996;20.804;2022-12-18T22:08:24;39.85;;;17.98;;
75289;SDS011;63883;48.996;20.804;2022-12-18T22:10:50;50.88;;;18.45;;
75289;SDS011;63883;48.996;20.804;2022-12-18T22:13:16;58.38;;;21.90;;
75289;SDS011;63883;48.996;20.804;2022-12-18T22:15:42;57.42;;;22.60;;
75289;SDS011;63883;48.996;20.804;2022-12-18T22:18:08;60.30;;;22.95;;
75289;SDS011;63883;48.996;20.804;2022-12-18T22:20:33;46.95;;;21.00;;
75289;SDS011;63883;48.996;20.804;2022-12-18T22:22:59;49.33;;;18.00;;
75289;SDS011;63883;48.996;20.804;2022-12-18T22:25:25;38.00;;;15.10;;
75289;SDS011;63883;48.996;20.804;2022-12-18T22:27:51;38.85;;;13.68;;
75289;SDS011;63883;48.996;20.804;2022-12-18T22:30:35;40.95;;;14.02;;
75289;SDS011;63883;48.996;20.804;2022-12-18T22:33:01;32.30;;;12.73;;
75289;SDS011;63883;48.996;20.804;2022-12-18T22:35:27;28.85;;;12.13;;
75289;SDS011;63883;48.996;20.804;2022-12-18T22:37:53;27.83;;;12.18;;
75289;SDS011;63883;48.996;20.804;2022-12-18T22:40:20;34.92;;;12.70;;
75289;SDS011;63883;48.996;20.804;2022-12-18T22:42:48;35.65;;;13.45;;
75289;SDS011;63883;48.996;20.804;2022-12-18T22:45:14;26.33;;;11.05;;
75289;SDS011;63883;48.996;20.804;2022-12-18T22:47:40;31.08;;;11.90;;
75289;SDS011;63883;48.996;20.804;2022-12-18T22:50:06;34.88;;;14.20;;
75289;SDS011;63883;48.996;20.804;2022-12-18T22:52:34;42.33;;;13.65;;
75289;SDS011;63883;48.996;20.804;2022-12-18T22:55:00;36.50;;;16.83;;
75289;SDS011;63883;48.996;20.804;2022-12-18T22:57:25;32.75;;;13.35;;
75289;SDS011;63883;48.996;20.804;2022-12-18T22:59:51;40.88;;;12.27;;
75289;SDS011;63883;48.996;20.804;2022-12-18T23:02:17;34.08;;;14.50;;
75289;SDS011;63883;48.996;20.804;2022-12-18T23:04:43;36.15;;;12.55;;
75289;SDS011;63883;48.996;20.804;2022-12-18T23:07:09;38.42;;;12.80;;
75289;SDS011;63883;48.996;20.804;2022-12-18T23:09:35;39.53;;;14.80;;
75289;SDS011;63883;48.996;20.804;2022-12-18T23:12:01;44.00;;;16.73;;
75289;SDS011;63883;48.996;20.804;2022-12-18T23:14:28;44.03;;;17.88;;
75289;SDS011;63883;48.996;20.804;2022-12-18T23:16:54;44.50;;;17.13;;
75289;SDS011;63883;48.996;20.804;2022-12-18T23:19:20;43.13;;;17.52;;
75289;SDS011;63883;48.996;20.804;2022-12-18T23:21:46;45.28;;;18.40;;
75289;SDS011;63883;48.996;20.804;2022-12-18T23:24:12;43.40;;;16.00;;
75289;SDS011;63883;48.996;20.804;2022-12-18T23:26:38;48.80;;;18.48;;
75289;SDS011;63883;48.996;20.804;2022-12-18T23:29:04;46.67;;;18.48;;
75289;SDS011;63883;48.996;20.804;2022-12-18T23:31:31;54.22;;;20.85;;
75289;SDS011;63883;48.996;20.804;2022-12-18T23:33:59;56.33;;;20.23;;
75289;SDS011;63883;48.996;20.804;2022-12-18T23:36:26;55.67;;;18.77;;
75289;SDS011;63883;48.996;20.804;2022-12-18T23:38:53;62.10;;;20.05;;
75289;SDS011;63883;48.996;20.804;2022-12-18T23:41:22;63.35;;;22.20;;
75289;SDS011;63883;48.996;20.804;2022-12-18T23:43:49;83.20;;;25.95;;
75289;SDS011;63883;48.996;20.804;2022-12-18T23:46:16;71.57;;;25.00;;
75289;SDS011;63883;48.996;20.804;2022-12-18T23:48:51;57.05;;;20.33;;
75289;SDS011;63883;48.996;20.804;2022-12-18T23:51:18;50.08;;;19.02;;
75289;SDS011;63883;48.996;20.804;2022-12-18T23:53:47;49.53;;;17.52;;
75289;SDS011;63883;48.996;20.804;2022-12-18T23:56:14;46.03;;;16.25;;
75289;SDS011;63883;48.996;20.804;2022-12-18T23:58:41;41.63;;;16.23;;
